Aérodrome :
LOGIN :

S'inscrire | Disclaimer

   EN    FR    IT 

 










Légende :    VFR   VFR Marginal   IFR   IFR Intensif   IFR Très Intensif
Visi : 
Plafond : 
>= 8 km
>= 3000ft
5 à 8 km
1000 à 3000 ft
1500m à 5 km
500 à 1000 ft
800 à 1500m
200 à 500 ft
< 800m
< 200 ft
Symboles :   Orages  Brouillard  Fortes neiges  Fortes précipitations  Vent > 20 kt
SIGMETs :   Divers  Orages  Givrage  Turbulence  Onde Orograph.  Cendres Volcan.






- Altitude de l'aérodrome : 50 ft
- Code IATA : KOI


EGPA - Kirkwall

DERNIER METAR :
  • 221950Z AUTO 14007KT 9999 FEW014/// SCT020/// 08/06 Q1002

METARs EXPIRÉS :
  • 221920Z 13008KT 9999 VCSH FEW009 SCT018 BKN045 08/07 Q1002
  • 221850Z 14005KT 9999 -RADZ FEW010 SCT025 BKN035 08/07 Q1002
  • 221820Z 13005KT 9999 -RADZ FEW010 SCT017 BKN031 08/07 Q1002
  • 221750Z 13005KT 9999 FEW010 BKN035 08/07 Q1001
  • 221720Z 12004KT 9999 SHRA DZ SCT008 BKN025 BKN035 08/07 Q1001

TAF TAF EGPA
Valide du 22 à 18h jusqu'au 23 à 03h UTC


221700Z 2218/2303 12007KT 9999 FEW006 SCT018
TEMPO 2218/2303 6000 -RADZ BKN012
PROB30
TEMPO 2218/2303 4000 RADZ BKN006



MET'MAP, la Météo Aéronautique d'un coup d'oeil ! - Copyright ORBIFLY Décembre 2007 - Disclaimer

ORBIFLY MET'MAP TEAM :

Programmation & Développement : Alexandra Zaïnal
Conception & Développement : Baudouin d'Aumeries
Co-Programmation & Développement : Marc-Olivier Méhu
Soutien technique & logistique : Manuel Goepfert

Contact : metmap@orbifly.com




SOURCES & CREDITS :

   NOAA